QND weather

Cenej Airport
Novi Sad, South Bačka, Serbia

Public forecast

Using degrees Celsius for public forecast. Weather courtesy of forecast.io.

METAR (pilot weather report)

Closest report is Batajnica Air Base, 32.3 nm (59.9 km) SSE. Retrieved 2019/06/25 13:30 UTC (0 seconds ago):

LYBT 251330Z 05005KT 340V090 CAVOK 29/19 Q1022 NOSIG

TAF (pilot weather forecast)

Closest forecast is Batajnica Air Base, 32.3 nm (59.9 km) SSE. Retrieved 2019/06/25 12:00 UTC (1 hour ago):

TAF LYBT 251100Z 2512/2612 36005KT 9999 SCT040 TX29/2514Z TN19/2603Z PROB30 TEMPO 2513/2516 VRB15G25KT 4000 TSRA SCT027CB BKN030 BECMG 2523/2601 3000 BR TEMPO 2603/2605 0600 FG